M I D A S
Marine Information and Data Acquisition System
Tripno 63 of the Zeeleeuw from 2001-08-31 06:08:46 to 2001-08-31 19:00:00
Back to CruiseResearch ActivitiesStationsMapUnderway DataData graphs

EquipmentUnitsComments
TimeDGPSUTC
LatitudeDGPSDM.mWGS84
LongitudeDGPSDM.mWGS84
SpeedMeteo Stationm/sRelative wind speed
DirectionMeteo StationdegRelative wind direction
TemperatureMeteo Stationdeg CelciusAir temperature
PressureMeteo StationPaAtmospheric pressure
HumidityMeteo Station%Relative humidity
Missing or incorrect values are displayed as -999
Metereological data collected by the RV Zeeleeuw from 2001-08-31 06:08:46 to 2001-08-31 19:00:00
Time Latitude Longitude Speed Direction Temperature Pressure Humidity
2001-08-31 06:09 51°13.678 2°55.922 1.7 255 15.1 100760 80
2001-08-31 06:10 51°13.678 2°55.922 1.3 308 15.1 100760 80
2001-08-31 06:11 51°13.678 2°55.922 1.4 277 15.1 100760 81
2001-08-31 06:12 51°13.678 2°55.922 1.6 273 15.1 100760 82
2001-08-31 06:13 51°13.677 2°55.922 1.7 284 15.1 100760 82
2001-08-31 06:14 51°13.678 2°55.922 1.5 312 15 100760 83
2001-08-31 06:15 51°13.678 2°55.922 1 279 14.9 100770 84
2001-08-31 06:16 51°13.678 2°55.922 1.7 283 14.8 100760 84
2001-08-31 06:17 51°13.678 2°55.923 1.2 292 14.8 100760 85
2001-08-31 07:12 51°13.68 2°55.922 2.5 165 16.3 100740 82
2001-08-31 07:13 51°13.679 2°55.923 2.2 184 16.3 100740 81
2001-08-31 07:14 51°13.679 2°55.923 0.8 197 16.4 100730 81
2001-08-31 07:15 51°13.679 2°55.922 1.9 211 16.4 100730 81
2001-08-31 07:16 51°13.678 2°55.922 1.8 223 16.4 100730 81
2001-08-31 07:17 51°13.678 2°55.922 1.4 207 16.4 100730 82
2001-08-31 07:18 51°13.678 2°55.922 1.3 223 16.4 100730 82
2001-08-31 07:19 51°13.678 2°55.922 1.2 236 16.4 100730 81
2001-08-31 07:20 51°13.678 2°55.922 1.2 240 16.4 100730 81
2001-08-31 07:21 51°13.678 2°55.922 1.1 212 16.3 100730 81
2001-08-31 07:22 51°13.678 2°55.922 0.8 175 16.3 100730 82
2001-08-31 07:23 51°13.677 2°55.922 1.6 220 16.4 100730 82
2001-08-31 07:24 51°13.677 2°55.923 0.9 237 16.4 100730 82
2001-08-31 07:25 51°13.677 2°55.922 0.8 250 16.4 100730 83
2001-08-31 07:26 51°13.678 2°55.923 0.8 242 16.4 100730 83
2001-08-31 07:27 51°13.678 2°55.925 1.2 214 16.4 100730 83
2001-08-31 07:28 51°13.678 2°55.925 1.3 227 16.3 100730 83
2001-08-31 07:29 51°13.678 2°55.925 1.6 216 16.3 100730 83
2001-08-31 07:30 51°13.678 2°55.925 1.7 217 16.3 100730 83
2001-08-31 07:31 51°13.677 2°55.925 0.9 213 16.3 100730 83
2001-08-31 07:32 51°13.677 2°55.925 0.4 320 16.3 100730 83
2001-08-31 07:33 51°13.677 2°55.924 1.1 315 16.4 100730 84
2001-08-31 07:34 51°13.676 2°55.924 0.9 277 16.3 100730 84
2001-08-31 07:35 51°13.676 2°55.924 1 245 16.2 100730 84
2001-08-31 07:36 51°13.676 2°55.924 0.9 266 16.1 100730 85
2001-08-31 07:37 51°13.675 2°55.923 0.8 281 16.1 100730 85
2001-08-31 07:38 51°13.674 2°55.922 1.1 253 16.1 100720 86
2001-08-31 07:39 51°13.675 2°55.841 2.2 201 16 100720 86
2001-08-31 07:40 51°13.669 2°55.768 1.6 205 16 100720 87
2001-08-31 07:41 51°13.695 2°55.784 1 185 16 100720 87
2001-08-31 07:42 51°13.721 2°55.76 3.5 11 16 100720 87
2001-08-31 07:43 51°13.813 2°55.657 3.3 356 16 100720 87
2001-08-31 07:44 51°13.926 2°55.567 5.4 14 16 100720 86
2001-08-31 07:45 51°14.034 2°55.49 5.1 26 16.1 100720 85
2001-08-31 07:46 51°14.122 2°55.426 7.5 26 16.1 100720 85
2001-08-31 07:47 51°14.226 2°55.313 7.4 14 16.2 100720 83
2001-08-31 07:48 51°14.342 2°55.12 11.2 10 16.2 100710 83
2001-08-31 07:49 51°14.48 2°54.898 11.1 13 16.3 100700 81
2001-08-31 07:50 51°14.638 2°54.706 13.3 18 16.4 100700 81
2001-08-31 07:51 51°14.81 2°54.548 12.5 17 16.5 100690 80
2001-08-31 07:52 51°14.988 2°54.402 14 17 16.6 100700 81
2001-08-31 07:53 51°15.167 2°54.249 14.3 14 16.6 100700 81
2001-08-31 07:54 51°15.355 2°54.086 15.6 16 16.6 100690 80
2001-08-31 07:55 51°15.545 2°53.915 16 20 16.6 100690 82
2001-08-31 07:56 51°15.733 2°53.739 15.7 18 16.6 100690 81
2001-08-31 07:57 51°15.92 2°53.561 16.7 11 16.5 100680 82
2001-08-31 07:58 51°16.106 2°53.388 16.7 13 16.3 100690 81
2001-08-31 07:59 51°16.293 2°53.215 13.9 12 16.2 100710 81
2001-08-31 08:00 51°16.481 2°53.039 15.5 15 16.2 100720 82
2001-08-31 08:01 51°16.668 2°52.863 16.5 12 16.1 100710 79
2001-08-31 08:02 51°16.851 2°52.686 17.2 12 16.1 100720 85
2001-08-31 08:03 51°17.032 2°52.508 16.1 11 16.1 100710 84
2001-08-31 08:04 51°17.213 2°52.326 16 12 16 100730 84
2001-08-31 08:05 51°17.393 2°52.14 15.1 12 15.9 100720 82
2001-08-31 08:06 51°17.571 2°51.954 15.2 11 15.9 100730 85
2001-08-31 08:07 51°17.694 2°51.675 14.4 358 15.9 100730 85
2001-08-31 08:08 51°17.784 2°51.355 14.3 3 15.7 100730 87
2001-08-31 08:09 51°17.869 2°51.028 14.7   15.5 100720 89
2001-08-31 08:10 51°17.957 2°50.704 13.6 2 15.4 100730 90
2001-08-31 08:11 51°18.046 2°50.379 13 355 15.2 100740 90
2001-08-31 08:12 51°18.132 2°50.048 13.1 2 15.1 100730 91
2001-08-31 08:13 51°18.22 2°49.722 11 358 15 100740 91
2001-08-31 08:14 51°18.308 2°49.394 11 5 14.9 100750 92
2001-08-31 08:15 51°18.396 2°49.069 11.8 7 14.9 100740 92
2001-08-31 08:16 51°18.484 2°48.744 12 357 14.9 100740 91
2001-08-31 08:17 51°18.572 2°48.417 11.4 358 14.7 100740 88
2001-08-31 08:18 51°18.663 2°48.089 12.4 357 14.8 100730 89
2001-08-31 08:19 51°18.752 2°47.761 13.6 357 15.2 100730 89
2001-08-31 08:20 51°18.84 2°47.428 14 358 15.5 100720 89
2001-08-31 08:21 51°18.933 2°47.098 14.7 358 15.5 100720 88
2001-08-31 08:22 51°19.023 2°46.767 13.8 358 15.7 100710 88
2001-08-31 08:23 51°19.117 2°46.439 14.2 357 15.7 100720 87
2001-08-31 08:24 51°19.207 2°46.11 13.5 357 15.7 100730 86
2001-08-31 08:25 51°19.3 2°45.782 13.2 358 15.6 100730 84
2001-08-31 08:26 51°19.389 2°45.459 13 359 15.7 100720 86
2001-08-31 08:27 51°19.476 2°45.133 13.7 358 15.8 100730 87
2001-08-31 08:28 51°19.564 2°44.806 14.3 355 15.8 100710 86
2001-08-31 08:29 51°19.651 2°44.476 13.3 357 15.8 100740 87
2001-08-31 08:30 51°19.735 2°44.145 14 357 15.8 100730 86
2001-08-31 08:32 51°19.923 2°43.455 14.5 359 15.8 100730 85
2001-08-31 08:33 51°20.013 2°43.127 14.4 1 15.9 100730 86
2001-08-31 08:34 51°20.105 2°42.802 14 356 15.8 100730 82
2001-08-31 08:35 51°20.192 2°42.475 13.2 357 15.9 100730 85
2001-08-31 08:36 51°20.279 2°42.152 14.4 358 16 100740 87
2001-08-31 08:37 51°20.363 2°41.829 15.7 358 16 100740 85
2001-08-31 08:38 51°20.456 2°41.514 16.2 360 15.9 100730 85
2001-08-31 08:39 51°20.539 2°41.189 15.9 358 15.9 100740 85
2001-08-31 08:40 51°20.636 2°40.865 15.1 2 15.9 100740 86
2001-08-31 08:41 51°20.726 2°40.551 15.7 358 16 100730 88
2001-08-31 08:42 51°20.817 2°40.23 15.6 359 15.7 100740 87
2001-08-31 08:43 51°20.903 2°39.904 15.9 1 15.6 100750 88
2001-08-31 08:44 51°20.988 2°39.572 18 359 15.6 100720 90
2001-08-31 08:45 51°20.998 2°39.222 15.5 351 15.5 100730 89
2001-08-31 08:46 51°20.992 2°38.863 14.9 353 15.6 100740 89
2001-08-31 08:47 51°20.995 2°38.504 15.6 350 15.5 100730 88
2001-08-31 08:48 51°21.005 2°38.145 14.2 353 15.5 100740 88
2001-08-31 08:49 51°21.009 2°37.785 14.9 355 15.5 100740 88
2001-08-31 08:50 51°21.026 2°37.426 15.1 351 15.5 100750 86
2001-08-31 08:51 51°21.028 2°37.069 14.9 344 15.4 100740 86
2001-08-31 08:52 51°21.04 2°36.714 14.4 353 15.5 100740 87
2001-08-31 08:53 51°21.059 2°36.362 13.7 355 15.5 100750 86
2001-08-31 08:54 51°21.084 2°36.01 13.2 354 15.6 100740 86
2001-08-31 08:55 51°21.098 2°35.661 13.2 353 15.7 100750 87
2001-08-31 08:56 51°21.113 2°35.313 14.1 353 15.8 100750 87
2001-08-31 08:57 51°21.128 2°34.967 14 350 15.9 100730 85
2001-08-31 08:58 51°21.138 2°34.621 16.2 353 15.9 100740 84
2001-08-31 08:59 51°21.154 2°34.278 14.6 354 15.9 100740 84
2001-08-31 09:00 51°21.164 2°33.934 13.4 350 15.9 100740 82
2001-08-31 09:01 51°21.174 2°33.597 15 357 16 100740 83
2001-08-31 09:02 51°21.193 2°33.255 13.5 349 16 100740 81
2001-08-31 09:03 51°21.194 2°32.91 12.6 354 16.1 100750 82
2001-08-31 09:04 51°21.204 2°32.564 14.6 356 16.2 100740 82
2001-08-31 09:05 51°21.227 2°32.228 15 358 16.1 100730 81
2001-08-31 09:06 51°21.376 2°32.016 17.8 17 16.2 100750 83
2001-08-31 09:07 51°21.576 2°31.908 16.8 23 16.2 100750 81
2001-08-31 09:08 51°21.776 2°31.779 17.5 17 16.3 100750 83
2001-08-31 09:09 51°21.967 2°31.62 17.6 16 16.2 100740 80
2001-08-31 09:10 51°22.152 2°31.44 17.8 17 16.2 100740 81
2001-08-31 09:11 51°22.335 2°31.259 15.5 7 16.2 100740 80
2001-08-31 09:12 51°22.507 2°31.048 16 4 16.2 100750 81
2001-08-31 09:13 51°22.63 2°30.771 13.6 358 16.2 100750 81
2001-08-31 09:14 51°22.665 2°30.433 13.8 344 16.2 100770 82
2001-08-31 09:15 51°22.628 2°30.096 13 335 16.2 100740 82
2001-08-31 09:16 51°22.574 2°29.765 13.9 337 16.1 100740 82
2001-08-31 09:17 51°22.523 2°29.435 13.3 338 16.1 100760 82
2001-08-31 09:18 51°22.466 2°29.105 11.1 335 16.1 100750 83
2001-08-31 09:19 51°22.402 2°28.777 12.5 333 16.1 100750 83
2001-08-31 09:20 51°22.339 2°28.452 13.4 340 16.1 100730 82
2001-08-31 09:21 51°22.285 2°28.122 13.3 334 16.1 100760 82
2001-08-31 09:22 51°22.22 2°27.796 12 339 16.1 100740 82
2001-08-31 09:23 51°22.165 2°27.462 13.4 341 16 100760 80
2001-08-31 09:24 51°22.093 2°27.133 13 331 16.1 100760 82
2001-08-31 09:25 51°22.025 2°26.804 11.8 333 16.1 100760 82
2001-08-31 09:26 51°22.007 2°26.465 12.3 353 16.1 100750 82
2001-08-31 09:27 51°22.065 2°26.143 15 351 16.1 100760 82
2001-08-31 09:28 51°22.17 2°25.849 16.2 357 16.1 100770 81
2001-08-31 09:29 51°22.309 2°25.592 13.7   16.2 100770 82
2001-08-31 09:30 51°22.435 2°25.319 16.2 356 16.2 100770 81
2001-08-31 09:31 51°22.559 2°25.049 15.6 3 16.1 100770 81
2001-08-31 09:32 51°22.752 2°24.92 16.8 17 16.2 100740 82
2001-08-31 09:33 51°22.967 2°24.849 15.6 21 16.1 100760 81
2001-08-31 09:34 51°23.184 2°24.784 17.2 10 16.2 100770 82
2001-08-31 09:35 51°23.396 2°24.706 16.6 14 16.1 100760 80
2001-08-31 09:36 51°23.606 2°24.616 16.9 13 16.2 100770 81
2001-08-31 09:37 51°23.821 2°24.541 17.8 17 16.2 100760 81
2001-08-31 09:38 51°24.039 2°24.478 19.5 13 16.2 100770 82
2001-08-31 09:39 51°24.255 2°24.413 17.8 15 16.2 100770 82
2001-08-31 09:40 51°24.471 2°24.345 17.9 13 16.2 100760 82
2001-08-31 09:41 51°24.685 2°24.282 18.1 22 16.1 100760 80
2001-08-31 09:42 51°24.901 2°24.22 17.6 13 16.2 100740 81
2001-08-31 09:43 51°25.117 2°24.155 19.5 15 16.2 100760 81
2001-08-31 09:44 51°25.331 2°24.083 17.5 12 16.2 100770 81
2001-08-31 09:45 51°25.544 2°24.011 18.4 16 16.2 100750 81
2001-08-31 09:46 51°25.757 2°23.935 17.8 15 16.2 100740 81
2001-08-31 09:47 51°25.972 2°23.882 17.9 24 16.2 100750 81
2001-08-31 09:48 51°26.189 2°23.821 18.5 18 16.3 100750 82
2001-08-31 09:49 51°26.404 2°23.742 17.4 13 16.2 100760 81
2001-08-31 09:50 51°26.62 2°23.669 17.4 15 16.3 100760 83
2001-08-31 09:51 51°26.841 2°23.603 17 16 16.2 100760 82
2001-08-31 09:52 51°27.057 2°23.531 18.4 17 16.2 100760 81
2001-08-31 09:53 51°27.272 2°23.46 17 21 16.2 100760 82
2001-08-31 09:54 51°27.486 2°23.394 17.1 21 16.2 100760 82
2001-08-31 09:55 51°27.7 2°23.307 18.5 21 16.2 100760 82
2001-08-31 09:56 51°27.917 2°23.236 17.8 19 16.2 100770 82
2001-08-31 09:57 51°28.135 2°23.168 18.7 20 16.1 100760 82
2001-08-31 09:58 51°28.353 2°23.109 18.2 21 16.1 100780 81
2001-08-31 09:59 51°28.572 2°23.04 17.7 21 16.1 100770 82
2001-08-31 10:00 51°28.788 2°22.958 18.3 22 16.1 100760 81
2001-08-31 10:01 51°29.007 2°22.888 18.8 20 16.2 100770 81
2001-08-31 10:02 51°29.224 2°22.815 18.3 14 16.1 100770 81
2001-08-31 10:03 51°29.442 2°22.743 16.8 13 16.2 100780 81
2001-08-31 10:04 51°29.659 2°22.677 17.6 17 16.1 100770 81
2001-08-31 10:05 51°29.877 2°22.609 16.9 17 16.2 100780 82
2001-08-31 10:06 51°30.095 2°22.541 16 15 16.2 100780 82
2001-08-31 10:07 51°30.313 2°22.468 17.2 19 16.2 100790 81
2001-08-31 10:08 51°30.531 2°22.405 15.9 13 16.2 100790 82
2001-08-31 10:09 51°30.749 2°22.336 16.8 20 16.2 100770 81
2001-08-31 10:10 51°30.967 2°22.265 17.1 15 16.3 100790 83
2001-08-31 10:11 51°31.19 2°22.239 17.6 25 16.2 100790 81
2001-08-31 10:12 51°31.411 2°22.196 17.3 13 16.2 100790 81
2001-08-31 10:13 51°31.617 2°22.068 16 9 16.2 100800 81
2001-08-31 10:14 51°31.793 2°21.864 15 3 16.1 100800 81
2001-08-31 10:15 51°31.962 2°21.642 15.4 4 16.1 100800 81
2001-08-31 10:16 51°32.137 2°21.431 16.1 2 16.1 100800 82
2001-08-31 10:17 51°32.308 2°21.207 14.9 2 16.1 100800 81
2001-08-31 10:18 51°32.466 2°20.968 15 6 16 100800 81
2001-08-31 10:19 51°32.642 2°20.76 15.6 1 16 100790 81
2001-08-31 10:20 51°32.823 2°20.561 15.8 1 16 100820 81
2001-08-31 10:21 51°32.999 2°20.353 14.3 3 16 100800 82
2001-08-31 10:22 51°33.171 2°20.133 14.6 358 16 100790 82
2001-08-31 10:23 51°33.325 2°19.883 16.8 1 16 100810 83
2001-08-31 10:24 51°33.486 2°19.646 15.1 359 15.9 100800 82
2001-08-31 10:25 51°33.659 2°19.43 14.8 2 16 100810 84
2001-08-31 10:26 51°33.821 2°19.195 15.2 360 16 100800 82
2001-08-31 10:27 51°33.997 2°18.982 14.8   16 100800 80
2001-08-31 10:28 51°34.171 2°18.768 14.2 360 16 100810 80
2001-08-31 10:29 51°34.348 2°18.559 16.9 3 16.1 100800 82
2001-08-31 10:30 51°34.522 2°18.346 14.6   16 100800 80
2001-08-31 10:31 51°34.702 2°18.148 16.3 8 16.1 100810 81
2001-08-31 10:32 51°34.919 2°18.085 15.5 19 16.1 100800 81
2001-08-31 10:33 51°35.143 2°18.106 17.3 34 16.2 100810 81
2001-08-31 10:34 51°35.332 2°18.307 9.8 320 16.2 100800 81
2001-08-31 10:35 51°35.517 2°18.533 11.4 41 16.3 100810 81
2001-08-31 10:36 51°35.7 2°18.759 12.2 39 16.2 100800 80
2001-08-31 10:37 51°35.883 2°18.986 12.3 44 16.2 100800 80
2001-08-31 10:38 51°36.068 2°19.208 11.9 42 16.2 100800 80
2001-08-31 10:39 51°36.248 2°19.441 11.7 320 16.2 100800 81
2001-08-31 10:40 51°36.429 2°19.673 9.2 36 16.2 100800 81
2001-08-31 10:41 51°36.607 2°19.917 9 324 16.2 100800 81
2001-08-31 10:42 51°36.78 2°20.167 6.3 40 16.2 100800 81
2001-08-31 10:43 51°36.958 2°20.416 12.1 43 16.2 100800 80
2001-08-31 10:44 51°37.134 2°20.667 9.6 41 16.2 100800 80
2001-08-31 10:45 51°37.31 2°20.917 7.1 44 16.2 100810 81
2001-08-31 10:46 51°37.484 2°21.175 10.2 319 16.2 100800 81
2001-08-31 10:47 51°37.662 2°21.425 8.4 48 16.2 100810 82
2001-08-31 10:48 51°37.833 2°21.685 9.3 51 16.2 100800 81
2001-08-31 10:49 51°38.01 2°21.939 9.9 43 16.2 100810 82
2001-08-31 10:50 51°38.188 2°22.188 9.2 318 16.3 100800 82
2001-08-31 10:51 51°38.376 2°22.419 8.2 34 16.3 100800 81
2001-08-31 10:52 51°38.563 2°22.658 7.5 37 16.3 100790 81
2001-08-31 10:53 51°38.744 2°22.908 9.5 42 16.2 100800 81
2001-08-31 10:54 51°38.929 2°23.151 12.3 44 16.2 100810 82
2001-08-31 10:55 51°39.11 2°23.398 6.6 42 16.3 100790 82
2001-08-31 10:56 51°39.291 2°23.648 6.4 325 16.3 100790 82
2001-08-31 10:57 51°39.469 2°23.905 9.9 134 16.3 100800 82
2001-08-31 10:58 51°39.648 2°24.159 9.7 133 16.2 100790 81
2001-08-31 10:59 51°39.834 2°24.404 9.7 51 16.3 100800 82
2001-08-31 11:00 51°40.023 2°24.643 5.4 318 16.3 100800 81
2001-08-31 11:01 51°40.211 2°24.885 9.2 44 16.3 100790 80
2001-08-31 11:02 51°40.395 2°25.133 12.3 45 16.3 100800 81
2001-08-31 11:03 51°40.583 2°25.374 7.8 44 16.3 100790 80
2001-08-31 11:04 51°40.768 2°25.621 7.3 51 16.4 100800 81
2001-08-31 11:05 51°40.956 2°25.866 9.2 44 16.4 100800 81
2001-08-31 11:06 51°41.143 2°26.118 7 53 16.4 100800 80
2001-08-31 11:07 51°41.327 2°26.368 6.9 53 16.4 100800 80
2001-08-31 11:08 51°41.512 2°26.619 10.6 44 16.4 100810 81
2001-08-31 11:09 51°41.702 2°26.86 5.2 47 16.4 100800 81
2001-08-31 11:10 51°41.88 2°27.121 5.9 134 16.4 100800 81
2001-08-31 11:11 51°42.062 2°27.376 5.4 39 16.4 100800 81
2001-08-31 11:12 51°42.244 2°27.627 10.5 34 16.4 100810 82
2001-08-31 11:13 51°42.423 2°27.886 5.3 44 16.3 100800 80
2001-08-31 11:14 51°42.604 2°28.142 10 45 16.3 100810 81
2001-08-31 11:15 51°42.785 2°28.399 13 51 16.3 100810 80
2001-08-31 11:16 51°42.972 2°28.646 7.9 318 16.4 100810 81
2001-08-31 11:17 51°43.164 2°28.887 7.2 44 16.3 100800 80
2001-08-31 11:18 51°43.354 2°29.13 7.4 47 16.4 100810 81
2001-08-31 11:19 51°43.54 2°29.375 9.7 45 16.4 100810 81
2001-08-31 11:20 51°43.727 2°29.623 8.3 131 16.4 100810 81
2001-08-31 11:21 51°43.912 2°29.874 8.6 48 16.4 100810 81
2001-08-31 11:22 51°44.094 2°30.13 12.2 39 16.4 100820 81
2001-08-31 11:23 51°44.28 2°30.378 8.2 42 16.4 100820 80
2001-08-31 11:24 51°44.465 2°30.628 7.4 40 16.4 100800 79
2001-08-31 11:25 51°44.65 2°30.878 6 43 16.4 100820 80
2001-08-31 11:26 51°44.836 2°31.128 5.7 120 16.4 100820 80
2001-08-31 11:27 51°45.02 2°31.383 6.2 319 16.5 100820 80
2001-08-31 11:28 51°45.205 2°31.634 6.6 52 16.5 100830 81
2001-08-31 11:29 51°45.389 2°31.889 9.6 131 16.5 100830 81
2001-08-31 11:30 51°45.575 2°32.143 8.2 56 16.5 100820 81
2001-08-31 11:31 51°45.764 2°32.393 7.9 50 16.5 100820 80
2001-08-31 11:32 51°45.951 2°32.646 6.4 41 16.5 100830 80
2001-08-31 11:33 51°46.107 2°32.936 6.5 130 16.5 100820 80
2001-08-31 11:34 51°46.098 2°33.3 0.4 150 16.4 100860 80
2001-08-31 11:35 51°45.951 2°33.575 1.4 224 16.5 100860 81
2001-08-31 11:36 51°45.792 2°33.834 2.5 240 16.6 100860 80
2001-08-31 11:37 51°45.621 2°34.062 2.8 266 16.6 100860 79
2001-08-31 11:38 51°45.445 2°34.271 2.2 246 16.5 100860 79
2001-08-31 11:39 51°45.265 2°34.474 2.9 283 16.5 100860 81
2001-08-31 11:40 51°45.075 2°34.662 2.6 270 16.6 100860 80
2001-08-31 11:41 51°44.901 2°34.885 1.7 273 16.6 100860 81
2001-08-31 11:42 51°44.728 2°35.097 2.9 262 16.6 100860 80
2001-08-31 11:43 51°44.551 2°35.297 3.5 265 16.6 100860 79
2001-08-31 11:44 51°44.362 2°35.476 3.6 251 16.6 100860 80
2001-08-31 11:45 51°44.177 2°35.659 2.5 270 16.6 100870 79
2001-08-31 11:46 51°43.993 2°35.85 4.2 242 16.6 100870 79
2001-08-31 11:47 51°43.814 2°36.055 2.3 247 16.7 100860 78
2001-08-31 11:48 51°43.643 2°36.277 2.5 241 16.7 100870 77
2001-08-31 11:49 51°43.462 2°36.479 3.7 269 16.7 100870 78
2001-08-31 11:50 51°43.278 2°36.675 3 263 16.9 100870 80
2001-08-31 11:51 51°43.101 2°36.891 1.7 225 16.9 100870 79
2001-08-31 11:52 51°42.921 2°37.103 2.5 269 16.9 100870 78
2001-08-31 11:53 51°42.743 2°37.314 3.7 257 16.9 100870 78
2001-08-31 11:54 51°42.556 2°37.509 2.6 262 16.8 100870 77
2001-08-31 11:55 51°42.382 2°37.727 2.1 242 16.8 100870 79
2001-08-31 11:56 51°42.208 2°37.949 2.4 206 16.9 100880 78
2001-08-31 11:57 51°42.024 2°38.139 1.7 256 16.8 100870 78
2001-08-31 11:58 51°41.845 2°38.339 3.5 241 16.8 100880 78
2001-08-31 11:59 51°41.666 2°38.528 2.8 254 16.8 100870 78
2001-08-31 12:00 51°41.494 2°38.738 3.1 234 16.8 100880 77
2001-08-31 12:01 51°41.317 2°38.932 2.6 231 16.8 100870 76
2001-08-31 12:02 51°41.138 2°39.133 2.1 256 16.7 100880 76
2001-08-31 12:03 51°40.958 2°39.345 1.3 215 16.7 100880 75
2001-08-31 12:04 51°40.781 2°39.544 2.1 249 16.8 100870 77
2001-08-31 12:05 51°40.604 2°39.749 2.8 246 16.9 100880 78
2001-08-31 12:06 51°40.42 2°39.945 2.6 271 16.9 100880 77
2001-08-31 12:07 51°40.242 2°40.158 3 275 16.9 100880 77
2001-08-31 12:08 51°40.052 2°40.332 2.8 240 16.9 100880 77
2001-08-31 12:09 51°39.871 2°40.524 3.2 236 17 100880 79
2001-08-31 12:10 51°39.696 2°40.728 1.7 231 17 100880 79
2001-08-31 12:11 51°39.547 2°40.994 0.4 283 16.9 100880 77
2001-08-31 12:12 51°39.416 2°41.296 1.3 127 16.9 100890 77
2001-08-31 12:13 51°39.311 2°41.633 1.6 109 16.9 100880 77
2001-08-31 12:14 51°39.221 2°41.978 1 109 16.9 100880 77
2001-08-31 12:15 51°39.119 2°42.313 2 117 16.9 100880 77
2001-08-31 12:16 51°39.033 2°42.658 0.9 138 16.9 100880 75
2001-08-31 12:17 51°38.941 2°42.997 1.2 113 16.9 100880 76
2001-08-31 12:18 51°38.853 2°43.339 2 112 16.9 100880 76
2001-08-31 12:19 51°38.765 2°43.683 1 136 16.9 100880 76
2001-08-31 12:20 51°38.685 2°44.038 1.3 296 17 100880 76
2001-08-31 12:21 51°38.613 2°44.396 2 99 17.3 100870 77
2001-08-31 12:22 51°38.527 2°44.736 1.7 130 17.3 100880 76
2001-08-31 12:23 51°38.433 2°45.074 0.2 247 17.2 100880 76
2001-08-31 12:24 51°38.336 2°45.404 0.8 121 17.2 100880 75
2001-08-31 12:25 51°38.224 2°45.713 2.7 251 17.3 100880 75
2001-08-31 12:26 51°38.033 2°45.837 6.3 270 17.4 100880 76
2001-08-31 12:27 51°37.83 2°45.823 5.1 280 17.3 100870 74
2001-08-31 12:28 51°37.632 2°45.753 6.2 282 17.2 100860 77
2001-08-31 12:29 51°37.433 2°45.682 5.6 300 17.1 100860 77
2001-08-31 12:30 51°37.236 2°45.611 4.9 295 17 100870 78
2001-08-31 12:31 51°37.036 2°45.555 7.9 276 16.9 100870 76
2001-08-31 12:32 51°36.839 2°45.488 4.9 294 16.9 100860 75
2001-08-31 12:33 51°36.71 2°45.286 13.1 337 16.9 100860 78
2001-08-31 12:34 51°36.768 2°44.976 13.4 353 16.9 100840 79
2001-08-31 12:35 51°36.872 2°44.677 15 354 17 100850 77
2001-08-31 12:36 51°36.987 2°44.388 15 356 17 100840 73
2001-08-31 12:37 51°37.114 2°44.098 15.5 358 17.1 100850 72
2001-08-31 12:38 51°37.243 2°43.816 15.6 358 17.1 100850 71
2001-08-31 12:39 51°37.383 2°43.54 17 358 17.1 100850 70
2001-08-31 12:40 51°37.507 2°43.249 15.7 358 17.1 100850 71
2001-08-31 12:41 51°37.635 2°42.962 14.4 358 17.2 100850 72
2001-08-31 12:42 51°37.755 2°42.667 14.9   17.1 100850 71
2001-08-31 12:43 51°37.892 2°42.39 16.5 1 17.2 100850 76
2001-08-31 12:44 51°38.035 2°42.119 16.5 8 17.1 100840 75
2001-08-31 12:45 51°38.184 2°41.857 14 3 17.2 100860 76
2001-08-31 12:46 51°38.298 2°41.573 14.4 355 17.2 100840 77
2001-08-31 12:47 51°38.31 2°41.253 16 350 17.1 100850 79
2001-08-31 12:48 51°38.315 2°40.926 14.8 346 17.1 100850 78
2001-08-31 12:49 51°38.329 2°40.602 15.3 350 17.1 100860 77
2001-08-31 12:50 51°38.311 2°40.282 13.1 342 17.1 100850 78
2001-08-31 12:51 51°38.255 2°39.972 11.8 338 16.8 100850 78
2001-08-31 12:52 51°38.194 2°39.665 12.9 334 16.8 100850 78
2001-08-31 12:53 51°38.047 2°39.499 9.8 303 16.8 100850 79
2001-08-31 12:54 51°37.857 2°39.41 10.7 306 16.7 100860 78
2001-08-31 12:55 51°37.666 2°39.307 8.4 300 16.7 100870 81
2001-08-31 12:56 51°37.474 2°39.207 7.6 297 16.7 100860 80
2001-08-31 12:57 51°37.278 2°39.117 8.7 300 16.7 100870 79
2001-08-31 12:58 51°37.083 2°39.024 8.7 300 16.6 100870 78
2001-08-31 12:59 51°36.887 2°38.931 8.6 305 16.7 100870 79
2001-08-31 13:00 51°36.69 2°38.833 10.1 301 16.7 100880 80
2001-08-31 13:01 51°36.493 2°38.738 6.1 299 16.6 100880 79
2001-08-31 13:02 51°36.297 2°38.644 7.7 308 16.7 100870 79
2001-08-31 13:03 51°36.105 2°38.54 6.7 292 16.7 100870 78
2001-08-31 13:04 51°35.911 2°38.444 8.7 300 16.7 100890 79
2001-08-31 13:05 51°35.718 2°38.342 8.9 312 16.7 100880 78
2001-08-31 13:06 51°35.521 2°38.248 9.2 299 16.7 100880 79
2001-08-31 13:07 51°35.322 2°38.164 7.3 295 16.7 100880 78
2001-08-31 13:08 51°35.125 2°38.189 2.8 248 16.7 100890 79
2001-08-31 13:09 51°35 2°38.475 0.6 43 16.8 100920 79
2001-08-31 13:10 51°34.892 2°38.788 1.9 140 17 100920 80
2001-08-31 13:11 51°34.778 2°39.103 1.5 126 17.1 100920 78
2001-08-31 13:12 51°34.665 2°39.42 1.2 120 17 100920 77
2001-08-31 13:13 51°34.549 2°39.733 0.9 112 17 100910 76
2001-08-31 13:14 51°34.436 2°40.052 0.4 131 17 100920 77
2001-08-31 13:15 51°34.33 2°40.38 0.5 24 17.1 100920 77
2001-08-31 13:16 51°34.232 2°40.716 0.7 94 17.1 100920 77
2001-08-31 13:17 51°34.143 2°41.053 0.1 207 17.1 100920 76
2001-08-31 13:18 51°34.043 2°41.389 0.2 43 17.1 100920 76
2001-08-31 13:19 51°33.945 2°41.726 0.4 51 17.2 100920 76
2001-08-31 13:20 51°33.841 2°42.052 0.1 88 17.3 100920 76
2001-08-31 13:21 51°33.725 2°42.366 1 194 17.4 100920 76
2001-08-31 13:22 51°33.58 2°42.621 3.3 279 17.6 100920 74
2001-08-31 13:23 51°33.387 2°42.708 4.6 298 17.5 100910 74
2001-08-31 13:24 51°33.189 2°42.683 5.9 301 17.3 100900 74
2001-08-31 13:25 51°32.997 2°42.59 8.8 301 17.3 100890 78
2001-08-31 13:26 51°32.809 2°42.476 8.3 307 17.1 100880 77
2001-08-31 13:27 51°32.619 2°42.362 7.9 311 17 100900 76
2001-08-31 13:28 51°32.43 2°42.248 5.8 305 16.9 100890 77
2001-08-31 13:29 51°32.239 2°42.134 6.4 304 16.9 100910 77
2001-08-31 13:30 51°32.047 2°42.025 9.3 306 16.9 100890 77
2001-08-31 13:31 51°31.854 2°41.93 8.4 310 16.9 100900 78
2001-08-31 13:32 51°31.66 2°41.821 7.2 300 16.9 100900 76
2001-08-31 13:33 51°31.466 2°41.713 8.8 306 16.9 100910 77
2001-08-31 13:34 51°31.279 2°41.583 8 306 16.9 100900 77
2001-08-31 13:35 51°31.088 2°41.457 7.1 302 16.9 100900 78
2001-08-31 13:36 51°30.897 2°41.336 9.9 315 16.9 100910 78
2001-08-31 13:37 51°30.706 2°41.223 7.2 303 16.9 100910 76
2001-08-31 13:38 51°30.541 2°41.049 9.1 324 16.9 100910 77
2001-08-31 13:39 51°30.444 2°40.773 13.6 349 16.8 100890 76
2001-08-31 13:40 51°30.44 2°40.442 11.6 343 16.9 100900 76
2001-08-31 13:41 51°30.427 2°40.103 12.7 347 17 100890 77
2001-08-31 13:42 51°30.429 2°39.763 12.5 347 17.1 100900 77
2001-08-31 13:43 51°30.424 2°39.426 12.7 345 17.1 100890 74
2001-08-31 13:44 51°30.424 2°39.087 12.9 347 17.1 100900 76
2001-08-31 13:45 51°30.423 2°38.749 11.6 348 17.1 100900 75
2001-08-31 13:46 51°30.421 2°38.412 11.2 348 17.1 100900 74
2001-08-31 13:47 51°30.416 2°38.077 13.5 346 17.1 100900 73
2001-08-31 13:48 51°30.417 2°37.742 11.6 339 17.1 100890 72
2001-08-31 13:49 51°30.426 2°37.407 13.3 347 17.2 100900 75
2001-08-31 13:50 51°30.451 2°37.076 12.3 352 17.1 100900 72
2001-08-31 13:51 51°30.586 2°36.8 14.4 357 17.2 100910 73
2001-08-31 13:52 51°30.698 2°36.495 13 350 17.3 100910 74
2001-08-31 13:53 51°30.775 2°36.168 13.6 348 17.3 100900 72
2001-08-31 13:54 51°30.852 2°35.84 12.9 348 17.3 100910 72
2001-08-31 13:55 51°30.917 2°35.504 14.3 349 17.4 100900 74
2001-08-31 13:56 51°30.981 2°35.171 12.4 350 17.4 100900 73
2001-08-31 13:57 51°30.953 2°34.849 9.8 312 17.3 100900 73
2001-08-31 13:58 51°30.769 2°34.754 4.2 280 17.2 100920 74
2001-08-31 13:59 51°30.574 2°34.907 3.5 270 17.2 100940 73
2001-08-31 14:00 51°30.38 2°35.057 1.8 284 17.2 100940 74
2001-08-31 14:01 51°30.192 2°35.226 2.5 253 17.2 100940 74
2001-08-31 14:02 51°29.999 2°35.387 2.9 260 17.3 100940 74
2001-08-31 14:03 51°29.807 2°35.55 3.7 266 17.3 100940 72
2001-08-31 14:04 51°29.609 2°35.688 2.8 252 17.4 100940 72
2001-08-31 14:05 51°29.417 2°35.839 2.1 265 17.4 100940 71
2001-08-31 14:06 51°29.229 2°36.008 1.3 237 17.4 100950 71
2001-08-31 14:07 51°29.037 2°36.163 2.8 269 17.5 100950 72
2001-08-31 14:08 51°28.837 2°36.271 3.3 272 17.6 100940 71
2001-08-31 14:09 51°28.627 2°36.354 2.7 276 17.6 100940 71
2001-08-31 14:10 51°28.417 2°36.45 3 281 17.5 100950 70
2001-08-31 14:11 51°28.208 2°36.55 3.1 304 17.5 100940 71
2001-08-31 14:12 51°27.998 2°36.646 3.3 317 17.4 100940 71
2001-08-31 14:13 51°27.786 2°36.735 3.9 286 17.3 100950 73
2001-08-31 14:14 51°27.576 2°36.815 3.4 296 17.2 100950 72
2001-08-31 14:15 51°27.368 2°36.904 3.4 282 17.3 100940 72
2001-08-31 14:16 51°27.162 2°36.997 2.4 293 17.2 100950 72
2001-08-31 14:17 51°26.956 2°37.084 4 281 17.2 100950 72
2001-08-31 14:18 51°26.748 2°37.16 4.6 279 17.3 100950 73
2001-08-31 14:19 51°26.537 2°37.226 4 277 17.3 100950 73
2001-08-31 14:20 51°26.327 2°37.299 2.7 289 17.3 100950 73
2001-08-31 14:21 51°26.114 2°37.365 2.7 287 17.2 100950 71
2001-08-31 14:22 51°25.907 2°37.445 2.6 282 17.3 100950 73
2001-08-31 14:23 51°25.699 2°37.524 3.2 304 17.3 100960 70
2001-08-31 14:24 51°25.488 2°37.606 3 294 17.4 100960 73
2001-08-31 14:25 51°25.277 2°37.665 4.4 282 17.4 100960 74
2001-08-31 14:26 51°25.065 2°37.73 4.2 285 17.3 100950 72
2001-08-31 14:27 51°24.85 2°37.784 3.6 280 17.4 100960 72
2001-08-31 14:28 51°24.634 2°37.839 4.3 279 17.4 100950 73
2001-08-31 14:29 51°24.418 2°37.89 5 298 17.4 100960 75
2001-08-31 14:30 51°24.202 2°37.946 2.6 293 17.4 100960 73
2001-08-31 14:31 51°23.991 2°38.016 4.5 308 17.3 100960 74
2001-08-31 14:32 51°23.777 2°38.06 3.8 308 17.4 100960 74
2001-08-31 14:33 51°23.561 2°38.104 4.3 291 17.3 100950 75
2001-08-31 14:34 51°23.351 2°38.17 4.2 282 17.3 100950 76
2001-08-31 14:35 51°23.137 2°38.226 4.8 300 17.3 100960 74
2001-08-31 14:36 51°22.922 2°38.267 5.3 300 17.3 100960 75
2001-08-31 14:37 51°22.707 2°38.316 4.1 301 17.2 100960 75
2001-08-31 14:38 51°22.491 2°38.368 3.7 303 17.2 100960 73
2001-08-31 14:39 51°22.275 2°38.432 4.3 300 17.3 100960 76
2001-08-31 14:40 51°22.059 2°38.499 3.7 293 17.3 100960 74
2001-08-31 14:41 51°21.847 2°38.572 2.4 307 17.2 100970 73
2001-08-31 14:42 51°21.636 2°38.664 3.7 313 17.4 100970 76
2001-08-31 14:43 51°21.442 2°38.826 2.3 306 17.3 100970 75
2001-08-31 14:44 51°21.263 2°39.032 2.3 337 17.3 100970 73
2001-08-31 14:45 51°21.101 2°39.278 1.5 19 17.3 100980 73
2001-08-31 14:46 51°21.001 2°39.596 1.5 35 17.3 100980 73
2001-08-31 14:47 51°20.905 2°39.919 2.6 45 17.5 100980 73
2001-08-31 14:48 51°20.815 2°40.251 2.8 24 17.6 100980 73
2001-08-31 14:49 51°20.729 2°40.581 1.6 52 17.7 100980 73
2001-08-31 14:50 51°20.627 2°40.892 2.8 357 17.8 100980 73
2001-08-31 14:51 51°20.517 2°41.197 2 17 18 100980 74
2001-08-31 14:52 51°20.413 2°41.517 1.2 42 18.1 100980 73
2001-08-31 14:53 51°20.314 2°41.838 2.4 25 18 100980 72
2001-08-31 14:54 51°20.223 2°42.159 1.7 50 18.1 100980 72
2001-08-31 14:55 51°20.146 2°42.499 2.6 51 18.1 100980 70
2001-08-31 14:56 51°20.059 2°42.827 1.6 34 18 100970 70
2001-08-31 14:57 51°19.974 2°43.159 2.7 33 18 100980 70
2001-08-31 14:58 51°19.887 2°43.498 2.4 35 18 100980 70
2001-08-31 14:59 51°19.813 2°43.842 1.2 34 18 100980 70
2001-08-31 15:00 51°19.715 2°44.161 1.1 6 18 100970 70
2001-08-31 15:01 51°19.623 2°44.484 1.6 133 18.1 100980 71
2001-08-31 15:02 51°19.538 2°44.815 1.9 133 18.2 100970 71
2001-08-31 15:03 51°19.443 2°45.135 1.3 47 18.2 100980 70
2001-08-31 15:04 51°19.357 2°45.453 0.8 28 18.2 100980 70
2001-08-31 15:05 51°19.274 2°45.776 0.6 54 18.2 100980 69
2001-08-31 15:06 51°19.177 2°46.098 0.6   18.2 100980 69
2001-08-31 15:07 51°19.091 2°46.43 0.6 25 18.3 100980 68
2001-08-31 15:08 51°19.01 2°46.759 2.3 53 18.3 100980 68
2001-08-31 15:09 51°18.933 2°47.089 0.9 133 18.5 100980 70
2001-08-31 15:10 51°18.854 2°47.418 1.9 36 18.6 100980 69
2001-08-31 15:11 51°18.774 2°47.741 1.8 316 18.6 100980 68
2001-08-31 15:12 51°18.691 2°48.066 2.8 48 18.6 100980 69
2001-08-31 15:13 51°18.61 2°48.392 2.1 66 18.5 100980 68
2001-08-31 15:14 51°18.528 2°48.711 1.8 30 18.4 100980 68
2001-08-31 15:15 51°18.434 2°49.026 1.1 49 18.4 100980 68
2001-08-31 15:16 51°18.35 2°49.346 1.4 47 18.4 100990 69
2001-08-31 15:17 51°18.262 2°49.665 2.7 22 18.4 100980 70
2001-08-31 15:18 51°18.169 2°49.986 2 47 18.4 100990 68
2001-08-31 15:19 51°18.086 2°50.312 2.3 45 18.4 100990 67
2001-08-31 15:20 51°17.993 2°50.622 1.5 44 18.4 100990 68
2001-08-31 15:21 51°17.885 2°50.927 2 36 18.4 100990 67
2001-08-31 15:22 51°17.778 2°51.233 0.9 360 18.3 100990 67
2001-08-31 15:23 51°17.661 2°51.527 1.4 30 18.3 100990 68
2001-08-31 15:24 51°17.549 2°51.83 1.6 359 18.2 100990 68
2001-08-31 15:25 51°17.388 2°52.066 1.8 302 18.2 100990 68
2001-08-31 15:26 51°17.2 2°52.257 2.1 295 18 100980 69
2001-08-31 15:27 51°17.01 2°52.446 2 323 17.9 100990 71
2001-08-31 15:28 51°16.823 2°52.637 1.7 304 17.9 100990 72
2001-08-31 15:29 51°16.637 2°52.826 3.2 304 17.8 100980 72
2001-08-31 15:30 51°16.446 2°53.007 2.9 289 17.8 100990 74
2001-08-31 15:31 51°16.252 2°53.189 1.8 300 17.7 100990 71
2001-08-31 15:32 51°16.061 2°53.376 2.4 291 17.6 100990 72
2001-08-31 15:33 51°15.872 2°53.56 2.4 306 17.6 100990 73
2001-08-31 15:34 51°15.68 2°53.746 3.4 303 17.5 100990 75
2001-08-31 15:35 51°15.488 2°53.929 2.9 304 17.6 100990 72
2001-08-31 15:36 51°15.3 2°54.116 3.1 280 17.5 100990 73
2001-08-31 15:37 51°15.116 2°54.305 2.3 305 17.6 100990 74
2001-08-31 15:38 51°14.931 2°54.494 2.4 276 17.6 100990 71
2001-08-31 15:39 51°14.776 2°54.654 1.9 208 17.6 100990 71
2001-08-31 15:40 51°14.692 2°54.744 2.7 183 17.6 100990 72
2001-08-31 15:41 51°14.66 2°54.822 3.7 117 17.7 101000 72
2001-08-31 15:42 51°14.665 2°54.878 0.8 82 17.8 100990 73
2001-08-31 15:43 51°14.681 2°54.904 0.4 116 17.8 101000 75
2001-08-31 15:44 51°14.697 2°54.918 1 87 17.7 101000 72
2001-08-31 15:45 51°14.711 2°54.936 0.7 93 17.6 101000 72
2001-08-31 15:46 51°14.723 2°54.955 1.9 83 17.6 101000 72
2001-08-31 15:47 51°14.735 2°54.972 1.2 127 17.6 101000 71
2001-08-31 15:48 51°14.748 2°54.983 1.7 246 17.6 101000 71
2001-08-31 15:49 51°14.764 2°54.989 2 101 17.7 101000 72
2001-08-31 15:50 51°14.797 2°54.963 10.5 24 17.8 100990 71
2001-08-31 15:51 51°14.795 2°54.848 6.6 309 17.8 100990 69
2001-08-31 15:52 51°14.645 2°54.833 6 304 17.7 101000 71
2001-08-31 15:53 51°14.446 2°54.932 3.6 276 17.7 100990 74
2001-08-31 15:54 51°14.298 2°55.168 1.1 329 17.6 101000 73
2001-08-31 15:55 51°14.16 2°55.386 2.9 250 17.7 101000 74
2001-08-31 15:56 51°14.028 2°55.484 2.9 224 17.7 101000 72
2001-08-31 15:57 51°13.921 2°55.558 3.5 207 17.7 101000 72
2001-08-31 15:58 51°13.848 2°55.61 3.2 195 17.7 101000 70
2001-08-31 15:59 51°13.794 2°55.655 1.6 183 17.8 101010 71
2001-08-31 16:00 51°13.756 2°55.703 0.9 167 17.9 101000 70
2001-08-31 16:01 51°13.725 2°55.759 2.2 168 18 101010 69
2001-08-31 16:02 51°13.703 2°55.822 2.5 134 18.1 101010 69
2001-08-31 16:03 51°13.69 2°55.879 1.6 126 18.1 101010 70
2001-08-31 16:04 51°13.678 2°55.916 4.7 158 18.1 101010 70
2001-08-31 16:05 51°13.676 2°55.923 3.6 187 18.1 101010 70
2001-08-31 16:06 51°13.677 2°55.924 3.6 161 18.3 101010 69
2001-08-31 16:07 51°13.677 2°55.923 3.7 188 18.4 101010 70
2001-08-31 16:08 51°13.677 2°55.923 2.7 176 18.3 101010 69
2001-08-31 16:09 51°13.676 2°55.923 3.3 162 18.4 101010 70
2001-08-31 16:10 51°13.676 2°55.923 3.1 163 18.5 101010 68
2001-08-31 16:11 51°13.676 2°55.924 3.9 148 18.4 101010 69